Create Custom Reports and Graphics: Custom Report

Last 6 Observations

Last 30 Minutes (5-Min)

5 Minute Data | America/Los_Angeles
as of 5/10/26 12:02 PM PDT
Date & Time Wind Spd (mph) Wind Dir (°) Wind Gust (mph) Wind Spd Sonic (mph) Wind Dir Sonic (°) Wind Gust Sonic (mph)
5/10/26 - 1200 15.9 SW | 221 25.5 15.9 SW | 216 25.7
5/10/26 - 1155 11.7 SW | 219 20.9 12.7 SW | 222 21.7
5/10/26 - 1150 16.9 SW | 217 27.0 18.4 SSW | 212 28.6
5/10/26 - 1145 18.8 SW | 219 25.4 20.2 SW | 214 28.2
5/10/26 - 1140 17.7 SW | 228 28.2 17.5 SW | 228 24.8
5/10/26 - 1135 17.2 SW | 225 27.1 17.7 SW | 220 24.8
Max 18.8 - 28.2 20.2 - 28.6
Avg 16.4 - 25.7 17.1 - 25.6
Min 11.7 - 20.9 12.7 - 21.7

Top Stn/Summit - 11,053ft

Current Conditions

5/10/26 12:00 PM (-07:00)
Updated Every 15 Minutes
Wind Spd 14.8 mph   0.3
Wind Spd Sonic 15.7 mph   0.9
Wind Dir SW | 219 °
Wind Dir Sonic SW | 216 °
Wind Gust 27.0 mph   3.4
Wind Gust Sonic 28.6 mph   5.8
Temp 49.9 °F   5.5
WindChill 43.3 °F   6.8
RH 37 %   9
Dew Pt 24.8 °F   0.2
Wet Bulb 39.7 °F   2.8
Daily Max Wind 28.5 mph   1.8
Time of Max Wind 0908
Max Wind Dir SW | 222 °
Daily Max Gust Sonic 28.6 mph   2.7
Time Wind Max Sonic 1147
Dir Max Gust Sonic SSW | 207 Degrees
Daily Max Temp 50.6 °F   5.7
Daily Min Temp 43.4 °F   6.9
Yest MaxT 53.6 °F
Yest MinT 36.6 °F
Yest MaxGst 30.6 mph

Last 24 Hours

Top Stn/Summit - 11,053ft

15 Minute Data | America/Los_Angeles
as of 5/10/26 12:02 PM PDT
Date & Time Temp (°F) WindChill (°F) RH (%) Dew Pt (°F) Wet Bulb (°F) Wind Spd (mph) Wind Spd Sonic (mph) Wind Dir (°) Wind Dir Sonic (°) Wind Gust (mph) Wind Gust Sonic (mph) Daily Min Temp (°F) Daily Max Temp (°F) Daily Max Wind (mph) Daily Max Gust Sonic (mph)
5/10/26 - 1200 49.9 43.3 37 24.8 39.7 14.8 15.7 SW | 219 SW | 216 27.0 28.6 43.4 50.6 28.5 28.6
5/10/26 - 1145 49.4 42.3 37 24.4 39.3 17.9 18.5 SW | 224 SW | 221 28.2 28.2 43.4 49.7 28.5 28.2
5/10/26 - 1130 48.9 42.4 38 24.1 39.0 12.8 14.0 WSW | 244 WSW | 242 24.9 25.7 43.4 49.4 28.5 28.2
5/10/26 - 1115 48.8 42.0 38 24.7 39.1 15.8 16.6 SSW | 212 SSW | 208 24.7 25.3 43.4 49.1 28.5 28.2
5/10/26 - 1100 48.3 41.0 40 25.1 39.0 17.8 18.7 SW | 222 SW | 217 26.8 26.4 43.4 48.7 28.5 28.2
5/10/26 - 1045 47.9 40.6 40 24.7 38.6 17.7 18.9 SW | 224 SW | 219 24.9 24.6 43.4 48.1 28.5 28.2
5/10/26 - 1030 47.5 40.1 40 24.7 38.4 17.3 18.5 SW | 222 SW | 217 25.1 26.8 43.4 48.1 28.5 28.2
5/10/26 - 1015 47.0 39.3 41 24.7 38.2 17.7 18.9 SW | 224 SW | 219 25.8 24.8 43.4 47.3 28.5 28.2
5/10/26 - 1000 46.5 38.7 42 24.8 37.9 18.7 20.1 SW | 216 SSW | 211 25.4 26.4 43.4 47.0 28.5 28.2
5/10/26 - 0945 46.3 38.2 42 24.5 37.7 18.6 20.3 SW | 218 SSW | 213 27.4 28.2 43.4 46.9 28.5 28.2
5/10/26 - 0930 46.3 38.5 41 23.7 37.5 18.4 19.8 SW | 216 SSW | 211 24.1 26.0 43.4 46.9 28.5 26.0
5/10/26 - 0915 45.9 37.4 41 23.7 37.3 20.1 21.0 SW | 217 SSW | 212 28.5 25.5 43.4 46.9 28.5 26.0
5/10/26 - 0900 45.4 37.1 43 24.3 37.2 17.6 19.3 SW | 217 SSW | 212 27.2 26.0 43.4 46.9 27.2 26.0
5/10/26 - 0845 45.2 37.8 45 25.0 37.3 15.3 16.9 SSW | 211 SSW | 206 20.8 21.5 43.4 46.9 22.5 22.4
5/10/26 - 0830 44.8 36.9 45 24.9 37.0 16.6 18.3 SSW | 211 SSW | 206 22.5 22.4 43.4 46.9 22.5 22.4
5/10/26 - 0815 45.4 37.6 44 25.0 37.4 17.2 18.3 SSW | 212 SSW | 207 22.2 21.5 43.4 46.9 22.2 21.5
5/10/26 - 0800 46.1 38.7 43 24.6 37.6 16.2 16.8 SSW | 211 SSW | 206 21.8 20.1 43.4 46.9 21.8 20.1
5/10/26 - 0745 45.9 39.0 41 23.7 37.3 14.6 15.1 SSW | 212 SSW | 208 18.5 17.2 43.4 46.9 18.5 17.2
5/10/26 - 0730 45.6 38.7 41 23.4 37.1 14.4 14.6 SSW | 213 SSW | 208 18.4 17.0 43.4 46.9 18.4 17.2
5/10/26 - 0715 46.2 39.5 40 23.3 37.4 14.2 14.6 SSW | 213 SSW | 208 18.2 17.2 43.4 46.9 18.2 17.2
5/10/26 - 0700 46.6 40.3 38 22.3 37.2 12.8 13.2 SSW | 208 SSW | 204 16.8 15.2 43.4 46.9 16.8 16.3
5/10/26 - 0645 46.6 40.6 36 20.8 36.8 11.8 12.2 SSW | 210 SSW | 206 15.6 14.1 43.4 46.9 16.4 16.3
5/10/26 - 0630 46.0 40.0 35 20.1 36.4 11.2 11.8 SW | 214 SSW | 209 15.0 14.5 43.4 46.2 16.4 16.3
5/10/26 - 0615 45.1 38.7 37 20.1 35.9 11.2 11.6 SW | 215 SSW | 211 16.4 15.0 43.4 46.2 16.4 16.3
5/10/26 - 0600 44.5 38.1 37 19.7 35.5 11.1 11.6 SW | 214 SSW | 209 15.9 14.5 43.4 46.2 15.9 16.3
5/10/26 - 0545 44.3 38.0 36 18.9 35.1 9.6 11.0 SSW | 207 SSW | 203 15.8 15.2 43.4 46.2 15.8 16.3
5/10/26 - 0530 44.3 39.7 37 19.8 35.4 5.6 9.0 S | 189 S | 184 10.8 14.1 43.4 46.2 13.8 16.3
5/10/26 - 0515 44.3 - 38 20.2 35.5 0.2 4.1 NE | 36 SE | 146 1.4 10.1 43.4 46.2 13.8 16.3
5/10/26 - 0500 44.6 - 33 17.5 35.0 0.2 1.9 ENE | 73 E | 101 0.2 5.4 43.4 46.2 13.8 16.3
5/10/26 - 0445 45.0 - 31 16.3 34.9 0.2 1.6 ENE | 74 ENE | 65 0.2 2.9 43.4 46.2 13.8 16.3
5/10/26 - 0430 46.1 - 30 15.9 35.4 0.2 1.5 NE | 43 NE | 42 0.2 3.4 43.4 46.2 13.8 16.3
5/10/26 - 0415 46.1 - 30 16.0 35.5 0.2 1.9 NE | 40 NNE | 19 0.2 2.9 43.4 46.2 13.8 16.3
5/10/26 - 0400 45.8 - 28 14.8 35.0 0.2 3.6 NNE | 33 NE | 41 0.7 6.7 43.4 46.0 13.8 16.3
5/10/26 - 0345 45.6 - 28 14.6 34.9 0.2 2.6 NNE | 33 NE | 44 0.2 7.2 43.4 45.9 13.8 16.3
5/10/26 - 0330 45.0 - 28 13.9 34.4 0.4 5.4 NNE | 32 NNE | 29 1.5 7.2 43.4 45.3 13.8 16.3
5/10/26 - 0315 44.5 43.3 28 13.1 34.0 2.1 7.2 NNE | 31 NNE | 22 4.4 9.0 43.4 44.8 13.8 16.3
5/10/26 - 0300 44.6 42.0 28 13.2 34.0 3.5 7.2 NNE | 29 NNE | 20 6.1 9.4 43.4 44.8 13.8 16.3
5/10/26 - 0245 44.6 40.3 28 13.4 34.1 6.0 8.6 NNE | 25 NNE | 16 9.2 11.2 43.4 44.8 13.8 16.3
5/10/26 - 0230 44.6 40.1 28 13.5 34.1 6.7 9.6 NNE | 21 NNE | 13 9.2 12.1 43.4 44.8 13.8 16.3
5/10/26 - 0215 44.0 39.4 29 14.0 33.9 7.0 10.4 NNE | 20 N | 8 9.6 12.1 43.4 44.4 13.8 16.3
5/10/26 - 0200 43.7 39.0 30 14.5 33.8 7.0 10.5 NNE | 19 N | 7 9.5 12.1 43.4 43.9 13.8 16.3
5/10/26 - 0145 43.6 37.9 30 14.4 33.8 9.0 11.9 NNE | 24 NNE | 13 12.2 13.2 43.4 43.8 13.8 16.3
5/10/26 - 0130 43.6 37.2 30 14.4 33.7 11.1 14.0 NNE | 19 NNE | 15 13.8 15.9 43.4 43.8 13.8 16.3
5/10/26 - 0115 43.6 37.2 31 14.7 33.8 11.1 14.7 NNE | 16 N | 11 13.8 16.3 43.4 43.7 13.8 16.3
5/10/26 - 0100 43.7 37.1 30 14.7 33.9 11.1 14.1 N | 7 N | 2 15.6 16.1 36.6 53.6 30.6 27.7
5/10/26 - 0045 43.9 37.5 30 14.7 34.0 10.8 13.9 N | 7 N | 0 14.4 15.7 36.6 53.6 30.6 27.7
5/10/26 - 0030 44.0 37.5 30 14.5 34.0 11.0 14.0 N | 7 N | 1 15.3 17.2 36.6 53.6 30.6 27.7
5/10/26 - 0015 44.2 36.9 30 14.6 34.1 13.0 15.3 N | 4 N | 359 18.7 18.3 36.6 53.6 30.6 27.7
5/10/26 - 0000 44.2 36.6 30 14.8 34.1 14.4 16.8 N | 7 N | 0 19.7 20.6 36.6 53.6 30.6 27.7
5/9/26 - 2345 44.2 36.6 30 14.9 34.2 14.0 16.6 N | 6 N | 0 20.3 20.6 36.6 53.6 30.6 27.7
5/9/26 - 2330 44.2 36.2 30 15.0 34.2 15.5 18.2 N | 7 N | 1 21.9 21.2 36.6 53.6 30.6 27.7
5/9/26 - 2315 44.1 35.4 31 15.4 34.2 18.0 19.6 N | 5 N | 358 26.6 23.7 36.6 53.6 30.6 27.7
5/9/26 - 2300 44.4 35.8 32 16.2 34.6 17.0 19.7 N | 8 N | 1 27.2 26.2 36.6 53.6 30.6 27.7
5/9/26 - 2245 44.4 35.4 33 17.4 34.9 17.9 20.5 N | 9 N | 2 30.6 27.7 36.6 53.6 30.6 27.7
5/9/26 - 2230 44.6 36.0 34 17.8 35.0 18.7 20.9 N | 7 N | 360 26.2 26.6 36.6 53.6 26.7 26.6
5/9/26 - 2215 45.0 36.7 32 16.6 35.0 17.1 19.6 N | 6 N | 359 25.9 24.6 36.6 53.6 26.7 26.0
5/9/26 - 2200 44.8 36.6 32 16.4 34.9 17.7 19.4 N | 9 N | 2 24.7 23.7 36.6 53.6 26.7 26.0
5/9/26 - 2145 45.1 37.1 31 16.4 35.0 16.7 18.5 N | 10 N | 3 24.3 23.7 36.6 53.6 26.7 26.0
5/9/26 - 2130 45.6 38.5 31 16.5 35.3 14.0 15.6 N | 5 N | 358 19.9 19.5 36.6 53.6 26.7 26.0
5/9/26 - 2115 46.0 39.8 32 18.0 35.9 11.6 13.6 N | 9 N | 2 16.4 17.2 36.6 53.6 26.7 26.0
5/9/26 - 2100 46.3 39.8 32 18.3 36.1 13.0 14.8 NNE | 23 NNE | 17 17.6 17.4 36.6 53.6 26.7 26.0
5/9/26 - 2045 46.4 40.0 34 19.5 36.4 13.0 14.2 NNE | 25 NNE | 18 17.7 17.7 36.6 53.6 26.7 26.0
5/9/26 - 2030 46.9 40.3 34 19.9 36.8 13.6 13.8 NNE | 24 NNE | 18 19.7 20.1 36.6 53.6 26.7 26.0
5/9/26 - 2015 47.4 41.7 35 21.0 37.4 9.6 11.8 N | 6 N | 0 17.6 17.7 36.6 53.6 26.7 26.0
5/9/26 - 2000 47.8 42.5 34 20.6 37.5 8.6 10.9 N | 3 N | 356 16.5 15.7 36.6 53.6 26.7 26.0
5/9/26 - 1945 48.1 42.9 32 19.6 37.4 9.0 11.6 N | 3 N | 356 16.0 16.1 36.6 53.6 26.7 26.0
5/9/26 - 1930 48.4 45.0 32 19.6 37.5 4.2 10.0 NNW | 348 NNW | 342 11.2 14.3 36.6 53.6 26.7 26.0
5/9/26 - 1915 48.5 47.3 33 20.6 37.8 1.5 8.5 NNW | 329 NW | 325 6.0 13.2 36.6 53.6 26.7 26.0
5/9/26 - 1900 49.7 46.2 30 19.5 38.2 4.7 9.4 NNW | 346 NNW | 340 12.4 16.1 36.6 53.6 26.7 26.0
5/9/26 - 1845 52.8 - 36 26.4 41.6 0.2 5.4 WNW | 291 W | 271 0.2 11.9 36.6 53.6 26.7 26.0
5/9/26 - 1830 50.1 - 35 23.2 39.4 0.5 6.6 WNW | 294 WNW | 282 5.3 13.4 36.6 53.5 26.7 26.0
5/9/26 - 1815 51.3 - 36 25.4 40.6 1.1 8.4 WSW | 255 WSW | 251 7.9 15.9 36.6 53.5 26.7 26.0
5/9/26 - 1800 52.0 - 36 25.9 41.0 0.8 8.2 WSW | 249 WSW | 248 5.4 14.5 36.6 53.5 26.7 26.0
5/9/26 - 1745 52.0 - 38 27.3 41.5 0.3 5.8 SW | 232 SW | 232 1.8 10.7 36.6 53.5 26.7 26.0
5/9/26 - 1730 51.4 - 40 27.8 41.3 1.1 7.8 SW | 235 SW | 236 7.3 16.6 36.6 53.5 26.7 26.0
5/9/26 - 1715 50.8 - 36 25.2 40.3 1.4 7.5 WSW | 256 WNW | 298 9.2 14.3 36.6 53.5 26.7 26.0
5/9/26 - 1700 52.6 - 40 28.9 42.3 4.2 9.2 SW | 220 SW | 215 10.4 14.3 36.6 53.5 26.7 26.0
5/9/26 - 1645 51.4 - 39 27.2 41.2 1.0 5.4 SW | 224 W | 278 5.8 11.0 36.6 52.7 26.7 26.0
5/9/26 - 1630 50.5 - 34 23.4 39.6 1.6 5.0 SW | 223 NW | 309 8.6 10.5 36.6 51.7 26.7 26.0
5/9/26 - 1615 49.8 45.5 34 22.7 39.1 6.6 8.4 SW | 221 N | 354 15.3 17.2 36.6 50.9 26.7 26.0
5/9/26 - 1600 49.3 43.4 35 22.8 38.8 11.4 12.6 SW | 220 N | 353 21.0 20.6 36.6 50.9 26.7 26.0
5/9/26 - 1545 49.8 44.7 36 24.0 39.4 9.7 10.1 SW | 220 NNE | 17 17.3 16.6 36.6 50.9 26.7 26.0
5/9/26 - 1530 49.1 44.3 37 24.2 39.1 8.6 10.0 SW | 220 N | 5 15.4 16.3 36.6 50.9 26.7 26.0
5/9/26 - 1515 49.4 44.4 37 24.1 39.2 9.7 11.4 SW | 219 NNE | 25 16.5 17.0 36.6 50.9 26.7 26.0
5/9/26 - 1500 48.8 42.9 37 24.0 38.9 10.9 11.7 SW | 219 N | 7 20.5 20.4 36.6 50.9 26.7 26.0
5/9/26 - 1445 49.5 45.1 36 23.4 39.1 7.5 9.5 SW | 219 NNE | 24 14.6 18.6 36.6 50.9 26.7 26.0
5/9/26 - 1430 48.2 42.2 36 22.6 38.2 11.5 12.5 SW | 218 NNE | 23 20.4 17.4 36.6 48.9 26.7 26.0
5/9/26 - 1415 48.4 42.6 37 23.2 38.4 10.5 11.2 SW | 218 NNE | 23 19.2 17.4 36.6 48.9 26.7 26.0
5/9/26 - 1400 47.8 41.2 39 23.8 38.3 11.5 12.3 SW | 218 NNE | 22 23.6 21.2 36.6 48.7 26.7 26.0
5/9/26 - 1345 47.3 41.8 41 24.6 38.3 9.4 10.8 SW | 218 NNE | 15 15.8 16.8 36.6 47.6 26.7 26.0
5/9/26 - 1330 46.7 40.7 42 25.1 38.1 11.0 11.4 SW | 218 NNE | 21 17.4 16.6 36.6 47.1 26.7 26.0
5/9/26 - 1315 46.4 39.6 43 25.1 37.9 12.0 12.4 SW | 217 N | 8 20.9 18.6 36.6 46.7 26.7 26.0
5/9/26 - 1300 46.2 38.6 43 24.7 37.7 15.2 15.8 SW | 216 N | 11 24.9 21.2 36.6 46.5 26.7 26.0
5/9/26 - 1245 45.8 38.7 43 24.6 37.5 13.2 13.8 SW | 216 NNE | 29 21.0 20.4 36.6 45.9 26.7 26.0
5/9/26 - 1230 45.4 38.8 42 23.8 37.0 12.2 14.0 SW | 216 NNE | 12 17.5 17.7 36.6 45.9 26.7 26.0
5/9/26 - 1215 44.6 36.7 46 25.0 37.0 14.7 15.5 SW | 215 NNE | 23 23.7 21.7 36.6 45.1 26.7 26.0
5/9/26 - 1200 44.4 36.4 46 25.0 36.9 15.2 16.5 SW | 215 NE | 35 23.5 22.8 36.6 44.9 26.7 26.0
Max 52.8 47.3 46 28.9 42.3 20.1 21.0 - - 30.6 28.6 43.4 53.6 30.6 28.6
Avg 46.7 39.8 36 20.7 36.9 10.3 12.6 - - 16.2 17.5 - - - -
Min 43.6 35.4 28 13.1 33.7 0.2 1.5 - - 0.2 2.9 36.6 43.7 13.8 16.3
Calm: 0.0%